createdAt,value
2019-03-10T00:01:05.078Z,65.36
2019-03-10T00:03:33.537Z,65.24
2019-03-10T00:06:02.237Z,65.26
2019-03-10T00:08:30.745Z,65.44
2019-03-10T00:10:59.347Z,65.30
2019-03-10T00:13:28.465Z,65.26
2019-03-10T00:15:57.313Z,65.31
2019-03-10T00:18:25.772Z,65.21
2019-03-10T00:20:54.232Z,65.17
2019-03-10T00:23:22.766Z,65.34
2019-03-10T00:25:51.237Z,65.53
2019-03-10T00:28:19.838Z,65.57
2019-03-10T00:30:48.314Z,65.57
2019-03-10T00:33:16.781Z,65.69
2019-03-10T00:35:45.246Z,65.64
2019-03-10T00:38:14.031Z,65.73
2019-03-10T00:40:51.312Z,65.69
2019-03-10T00:43:28.766Z,65.77
2019-03-10T00:46:22.825Z,65.75
2019-03-10T00:49:10.887Z,65.62
2019-03-10T00:52:05.015Z,65.70
2019-03-10T00:54:33.426Z,65.66
2019-03-10T00:57:01.869Z,65.65
2019-03-10T00:59:30.307Z,65.65
2019-03-10T01:01:59.166Z,65.62
2019-03-10T01:04:27.700Z,65.62
2019-03-10T01:06:56.569Z,65.59
2019-03-10T01:09:25.024Z,65.62
2019-03-10T01:11:53.854Z,65.52
2019-03-10T01:14:22.313Z,65.38
2019-03-10T01:16:51.431Z,65.34
2019-03-10T01:19:20.554Z,65.36
2019-03-10T01:21:49.650Z,65.55
2019-03-10T01:24:18.072Z,65.34
2019-03-10T01:26:46.552Z,65.37
2019-03-10T01:29:14.983Z,65.38
2019-03-10T01:32:13.143Z,65.47
2019-03-10T01:35:00.367Z,65.48
2019-03-10T01:37:28.841Z,65.21
2019-03-10T01:39:57.299Z,65.25
2019-03-10T01:42:25.755Z,65.27
2019-03-10T01:44:54.167Z,65.25
2019-03-10T01:47:22.627Z,65.19
2019-03-10T01:49:51.071Z,65.23
2019-03-10T01:52:19.512Z,65.25
2019-03-10T01:54:47.955Z,65.23
2019-03-10T01:57:16.427Z,65.38
2019-03-10T01:59:44.867Z,65.50
2019-03-10T02:02:13.306Z,65.50
2019-03-10T02:04:41.809Z,65.78
2019-03-10T02:07:10.243Z,65.78
2019-03-10T02:09:38.686Z,65.90
2019-03-10T02:12:07.128Z,65.99
2019-03-10T02:14:35.576Z,66.00
2019-03-10T02:17:04.227Z,66.08
2019-03-10T02:19:32.640Z,66.03
2019-03-10T02:22:01.132Z,66.11
2019-03-10T02:24:29.566Z,66.17
2019-03-10T02:26:58.003Z,66.03
2019-03-10T02:29:26.473Z,66.16
2019-03-10T02:31:54.952Z,66.16
2019-03-10T02:34:23.408Z,66.21
2019-03-10T02:36:51.846Z,66.34
2019-03-10T02:39:20.302Z,66.21
2019-03-10T02:41:48.821Z,66.20
2019-03-10T02:44:17.396Z,66.22
2019-03-10T02:46:45.808Z,66.11
2019-03-10T02:49:14.286Z,66.07
2019-03-10T02:51:42.728Z,66.13
2019-03-10T02:54:11.199Z,66.11
2019-03-10T02:56:39.635Z,66.10
2019-03-10T02:59:08.060Z,66.05
2019-03-10T03:01:36.586Z,66.01
2019-03-10T03:04:05.055Z,65.94
2019-03-10T03:06:33.480Z,65.80
2019-03-10T03:09:01.934Z,65.80
2019-03-10T03:11:30.613Z,65.67
2019-03-10T03:13:59.043Z,65.52
2019-03-10T03:16:27.453Z,65.40
2019-03-10T03:18:56.133Z,65.37
2019-03-10T03:21:24.587Z,65.26
2019-03-10T03:23:53.110Z,65.27
2019-03-10T03:26:21.530Z,65.29
2019-03-10T03:28:50.028Z,65.33
2019-03-10T03:31:18.483Z,65.36
2019-03-10T03:33:47.037Z,65.36
2019-03-10T03:36:18.684Z,65.35
2019-03-10T03:38:52.920Z,65.32
2019-03-10T03:41:23.717Z,65.35
2019-03-10T03:43:52.138Z,65.36
2019-03-10T03:46:20.580Z,65.33
2019-03-10T03:48:49.066Z,65.25
2019-03-10T03:51:17.593Z,65.24
2019-03-10T03:53:46.020Z,65.21
2019-03-10T03:56:14.474Z,65.19
2019-03-10T03:58:43.143Z,65.16
2019-03-10T04:01:19.090Z,65.07
2019-03-10T04:03:47.603Z,65.06
2019-03-10T04:06:16.060Z,65.06
2019-03-10T04:08:44.512Z,65.05
2019-03-10T04:11:12.969Z,65.08
2019-03-10T04:13:41.421Z,65.11
2019-03-10T04:16:09.868Z,65.11
2019-03-10T04:18:38.308Z,65.11
2019-03-10T04:21:06.755Z,65.11
2019-03-10T04:23:35.201Z,65.13
2019-03-10T04:26:03.640Z,65.08
2019-03-10T04:28:32.072Z,65.10
2019-03-10T04:31:00.564Z,65.05
2019-03-10T04:33:29.076Z,65.00
2019-03-10T04:35:57.510Z,64.93
2019-03-10T04:38:25.946Z,64.90
2019-03-10T04:40:54.395Z,64.87
2019-03-10T04:43:22.847Z,64.82
2019-03-10T04:45:51.276Z,64.77
2019-03-10T04:48:19.751Z,64.77
2019-03-10T04:50:48.184Z,64.75
2019-03-10T04:53:16.657Z,64.80
2019-03-10T04:56:01.786Z,64.80
2019-03-10T04:58:30.789Z,64.82
2019-03-10T05:01:00.137Z,64.81
2019-03-10T05:03:28.869Z,64.88
2019-03-10T05:05:57.310Z,64.97
2019-03-10T05:08:25.759Z,64.96
2019-03-10T05:10:54.185Z,64.99
2019-03-10T05:13:22.628Z,65.08
2019-03-10T05:15:51.057Z,65.15
2019-03-10T05:18:19.501Z,65.24
2019-03-10T05:20:48.689Z,65.32
2019-03-10T05:23:40.420Z,65.38
2019-03-10T05:26:08.860Z,65.38
2019-03-10T05:28:40.383Z,65.36
2019-03-10T05:31:08.853Z,65.38
2019-03-10T05:33:37.291Z,65.40
2019-03-10T05:36:05.733Z,65.42
2019-03-10T05:38:34.260Z,65.45
2019-03-10T05:41:02.693Z,65.41
2019-03-10T05:43:31.360Z,65.38
2019-03-10T05:45:59.927Z,65.35
2019-03-10T05:48:28.469Z,65.34
2019-03-10T05:50:56.947Z,65.35
2019-03-10T05:53:25.384Z,65.33
2019-03-10T05:55:53.849Z,65.27
2019-03-10T05:58:22.745Z,65.27
2019-03-10T06:00:51.818Z,65.35
2019-03-10T06:03:20.275Z,65.33
2019-03-10T06:05:48.715Z,65.38
2019-03-10T06:08:17.258Z,65.35
2019-03-10T06:10:45.675Z,65.37
2019-03-10T06:13:14.113Z,65.35
2019-03-10T06:15:42.923Z,65.36
2019-03-10T06:18:13.839Z,65.32
2019-03-10T06:20:41.671Z,65.24
2019-03-10T06:23:10.099Z,65.13
2019-03-10T06:25:38.543Z,65.13
2019-03-10T06:28:06.991Z,65.13
2019-03-10T06:30:35.448Z,65.08
2019-03-10T06:33:03.900Z,65.03
2019-03-10T06:35:32.400Z,65.00
2019-03-10T06:38:01.010Z,65.05
2019-03-10T06:40:32.405Z,65.08
2019-03-10T06:42:59.852Z,65.14
2019-03-10T06:45:28.270Z,65.13
2019-03-10T06:47:56.730Z,65.09
2019-03-10T06:50:25.241Z,64.98
2019-03-10T06:52:53.673Z,64.99
2019-03-10T06:55:22.125Z,64.98
2019-03-10T06:57:50.590Z,65.01
2019-03-10T07:00:19.050Z,65.06
2019-03-10T07:02:47.527Z,65.05
2019-03-10T07:05:15.953Z,65.03
2019-03-10T07:07:44.455Z,64.97
2019-03-10T07:10:14.568Z,64.98
2019-03-10T07:12:43.605Z,64.99
2019-03-10T07:15:13.892Z,65.03
2019-03-10T07:17:42.307Z,64.95
2019-03-10T07:20:16.525Z,64.89
2019-03-10T07:22:45.029Z,64.92
2019-03-10T07:25:13.484Z,64.95
2019-03-10T07:27:43.570Z,65.01
2019-03-10T07:30:31.219Z,65.03
2019-03-10T07:33:19.403Z,65.07
2019-03-10T07:36:05.847Z,65.19
2019-03-10T07:38:48.156Z,65.18
2019-03-10T07:41:18.263Z,65.20
2019-03-10T07:44:03.363Z,65.30
2019-03-10T07:46:49.714Z,65.55
2019-03-10T07:49:19.903Z,65.73
2019-03-10T07:51:55.523Z,65.64
2019-03-10T07:54:37.331Z,65.60
2019-03-10T07:57:25.515Z,65.56
2019-03-10T07:59:58.105Z,65.46
2019-03-10T08:02:44.472Z,65.36
2019-03-10T08:05:14.556Z,65.45
2019-03-10T08:07:53.987Z,65.46
2019-03-10T08:10:33.244Z,65.47
2019-03-10T08:13:03.446Z,65.38
2019-03-10T08:15:49.846Z,65.32
2019-03-10T08:18:19.945Z,65.39
2019-03-10T08:21:06.017Z,65.56
2019-03-10T08:23:48.052Z,65.60
2019-03-10T08:26:27.191Z,65.53
2019-03-10T08:29:05.983Z,65.45
2019-03-10T08:31:41.842Z,65.72
2019-03-10T08:34:17.340Z,65.88
2019-03-10T08:36:50.428Z,66.01
2019-03-10T08:39:29.634Z,66.26
2019-03-10T08:42:02.220Z,66.45
2019-03-10T08:44:37.891Z,66.49
2019-03-10T08:47:14.159Z,66.41
2019-03-10T08:49:45.466Z,66.40
2019-03-10T08:52:15.753Z,66.42
2019-03-10T08:55:00.889Z,66.44
2019-03-10T08:57:36.897Z,66.71
2019-03-10T09:00:10.028Z,66.99
2019-03-10T09:02:56.164Z,67.30
2019-03-10T09:05:26.246Z,67.56
2019-03-10T09:07:56.320Z,67.49
2019-03-10T09:10:35.082Z,67.35
2019-03-10T09:13:05.159Z,67.25
2019-03-10T09:15:35.245Z,67.09
2019-03-10T09:18:17.301Z,67.03
2019-03-10T09:20:52.956Z,67.02
2019-03-10T09:23:23.023Z,66.82
2019-03-10T09:26:09.712Z,66.87
2019-03-10T09:28:52.045Z,67.07
2019-03-10T09:31:25.243Z,66.95
2019-03-10T09:33:58.017Z,66.88
2019-03-10T09:36:33.569Z,66.87
2019-03-10T09:39:03.619Z,66.99
2019-03-10T09:41:33.776Z,67.11
2019-03-10T09:44:21.581Z,67.25
2019-03-10T09:46:57.959Z,67.31
2019-03-10T09:49:33.702Z,67.60
2019-03-10T09:52:06.250Z,67.82
2019-03-10T09:54:39.261Z,67.97
2019-03-10T09:57:18.599Z,68.30
2019-03-10T09:59:54.861Z,68.36
2019-03-10T10:02:27.845Z,68.20
2019-03-10T10:05:04.113Z,68.08
2019-03-10T10:07:34.201Z,68.05
2019-03-10T10:10:04.287Z,67.66
2019-03-10T10:12:40.337Z,66.87
2019-03-10T10:15:13.426Z,66.24
2019-03-10T10:17:43.512Z,66.03
2019-03-10T10:20:19.775Z,66.51
2019-03-10T10:22:58.600Z,66.68
2019-03-10T10:25:28.711Z,67.27
2019-03-10T10:28:10.870Z,67.90
2019-03-10T10:30:57.653Z,68.37
2019-03-10T10:33:30.409Z,68.80
2019-03-10T10:36:06.367Z,68.83
2019-03-10T10:38:37.764Z,68.65
2019-03-10T10:41:23.980Z,68.48
2019-03-10T10:43:54.381Z,68.49
2019-03-10T10:46:27.566Z,68.54
2019-03-10T10:49:12.444Z,68.15
2019-03-10T10:51:42.552Z,68.17
2019-03-10T10:54:13.110Z,68.02
2019-03-10T10:56:51.848Z,67.84
2019-03-10T10:59:24.565Z,67.84
2019-03-10T11:01:57.436Z,67.93
2019-03-10T11:04:42.511Z,68.23
2019-03-10T11:07:24.680Z,68.31
2019-03-10T11:09:54.819Z,68.22
2019-03-10T11:12:36.882Z,68.04
2019-03-10T11:15:12.738Z,67.99
2019-03-10T11:17:48.803Z,68.15
2019-03-10T11:20:19.309Z,68.28
2019-03-10T11:22:49.383Z,68.60
2019-03-10T11:25:19.465Z,68.63
2019-03-10T11:27:52.148Z,68.62
2019-03-10T11:30:28.377Z,68.52
2019-03-10T11:33:07.585Z,68.44
2019-03-10T11:35:37.691Z,68.25
2019-03-10T11:38:23.884Z,68.22
2019-03-10T11:40:59.786Z,67.74
2019-03-10T11:43:32.844Z,67.42
2019-03-10T11:46:24.463Z,67.46
2019-03-10T11:48:57.759Z,67.28
2019-03-10T11:51:33.763Z,66.95
2019-03-10T11:54:03.853Z,67.19
2019-03-10T11:56:42.002Z,67.05
2019-03-10T11:59:11.281Z,66.83
2019-03-10T12:01:47.637Z,67.37
2019-03-10T12:04:20.864Z,67.36
2019-03-10T12:06:50.968Z,67.48
2019-03-10T12:09:22.531Z,67.54
2019-03-10T12:11:51.643Z,67.58
2019-03-10T12:14:20.197Z,67.66
2019-03-10T12:16:48.935Z,67.85
2019-03-10T12:19:17.362Z,68.55
2019-03-10T12:21:45.796Z,68.83
2019-03-10T12:24:14.513Z,69.20
2019-03-10T12:26:43.021Z,69.52
2019-03-10T12:29:11.491Z,70.20
2019-03-10T12:31:39.961Z,70.17
2019-03-10T12:34:10.073Z,69.83
2019-03-10T12:36:38.843Z,69.29
2019-03-10T12:39:08.079Z,70.16
2019-03-10T12:41:36.688Z,70.77
2019-03-10T12:44:05.508Z,70.60
2019-03-10T12:46:33.971Z,70.46
2019-03-10T12:49:02.417Z,70.77
2019-03-10T12:51:30.943Z,70.10
2019-03-10T12:53:59.409Z,69.94
2019-03-10T12:56:27.845Z,70.71
2019-03-10T12:58:56.270Z,70.36
2019-03-10T13:01:24.739Z,70.13
2019-03-10T13:03:58.866Z,70.15
2019-03-10T13:06:23.450Z,70.92
2019-03-10T13:08:52.234Z,70.92
2019-03-10T13:11:20.727Z,70.90
2019-03-10T13:13:49.164Z,70.48
2019-03-10T13:16:17.619Z,70.73
2019-03-10T13:18:46.067Z,71.19
2019-03-10T13:21:14.594Z,71.23
2019-03-10T13:23:43.060Z,71.13
2019-03-10T13:26:11.499Z,70.85
2019-03-10T13:28:39.994Z,70.87
2019-03-10T13:31:08.465Z,70.82
2019-03-10T13:33:37.013Z,70.82
2019-03-10T13:36:05.814Z,71.19
2019-03-10T13:38:34.316Z,70.90
2019-03-10T13:41:02.772Z,70.71
2019-03-10T13:43:31.275Z,70.71
2019-03-10T13:45:59.699Z,71.06
2019-03-10T13:48:28.158Z,71.06
2019-03-10T13:50:56.591Z,70.79
2019-03-10T13:53:25.036Z,70.50
2019-03-10T13:55:53.542Z,70.99
2019-03-10T13:58:22.011Z,71.53
2019-03-10T14:00:50.810Z,71.37
2019-03-10T14:03:20.573Z,71.43
2019-03-10T14:05:49.194Z,71.28
2019-03-10T14:08:17.810Z,71.98
2019-03-10T14:10:46.352Z,72.12
2019-03-10T14:13:14.775Z,72.73
2019-03-10T14:15:44.563Z,72.43
2019-03-10T14:18:13.160Z,73.27
2019-03-10T14:20:41.712Z,73.22
2019-03-10T14:23:10.428Z,73.54
2019-03-10T14:25:38.880Z,73.31
2019-03-10T14:28:07.501Z,73.53
2019-03-10T14:30:35.942Z,73.41
2019-03-10T14:33:04.552Z,73.72
2019-03-10T14:35:33.009Z,74.49
2019-03-10T14:38:01.458Z,74.81
2019-03-10T14:40:29.925Z,75.94
2019-03-10T14:42:58.770Z,76.34
2019-03-10T14:45:27.455Z,77.10
2019-03-10T14:47:55.930Z,76.79
2019-03-10T14:50:24.399Z,76.05
2019-03-10T14:52:52.830Z,76.21
2019-03-10T14:55:22.415Z,75.78
2019-03-10T14:57:50.926Z,75.42
2019-03-10T15:00:24.212Z,75.36
2019-03-10T15:02:52.673Z,75.18
2019-03-10T15:05:21.561Z,75.70
2019-03-10T15:07:54.404Z,75.33
2019-03-10T15:10:23.078Z,76.04
2019-03-10T15:12:51.520Z,76.58
2019-03-10T15:15:22.878Z,75.45
2019-03-10T15:17:51.271Z,76.22
2019-03-10T15:20:21.620Z,76.83
2019-03-10T15:22:50.024Z,76.29
2019-03-10T15:25:24.971Z,76.89
2019-03-10T15:27:52.937Z,77.83
2019-03-10T15:30:25.977Z,78.32
2019-03-10T15:32:54.466Z,77.49
2019-03-10T15:35:22.983Z,78.41
2019-03-10T15:37:54.220Z,78.11
2019-03-10T15:40:23.749Z,77.13
2019-03-10T15:42:52.377Z,78.20
2019-03-10T15:45:20.952Z,77.57
2019-03-10T15:47:50.655Z,77.82
2019-03-10T15:50:37.102Z,79.70
2019-03-10T15:53:05.621Z,78.72
2019-03-10T15:55:34.387Z,78.34
2019-03-10T15:58:04.090Z,78.50
2019-03-10T16:00:32.898Z,78.06
2019-03-10T16:03:01.801Z,78.04
2019-03-10T16:05:30.223Z,78.08
2019-03-10T16:07:58.712Z,77.72
2019-03-10T16:10:27.129Z,78.04
2019-03-10T16:12:55.577Z,77.63
2019-03-10T16:15:26.240Z,78.29
2019-03-10T16:17:55.045Z,78.35
2019-03-10T16:20:23.484Z,78.34
2019-03-10T16:22:52.013Z,77.79
2019-03-10T16:25:20.530Z,77.58
2019-03-10T16:27:50.059Z,76.76
2019-03-10T16:30:19.748Z,76.34
2019-03-10T16:32:48.233Z,76.21
2019-03-10T16:35:17.245Z,76.23
2019-03-10T16:37:46.017Z,76.39
2019-03-10T16:40:16.581Z,76.97
2019-03-10T16:42:45.002Z,76.87
2019-03-10T16:45:15.838Z,76.68
2019-03-10T16:47:44.337Z,76.49
2019-03-10T16:50:15.439Z,76.61
2019-03-10T16:52:43.857Z,77.12
2019-03-10T16:55:12.361Z,77.38
2019-03-10T16:57:41.048Z,77.36
2019-03-10T17:00:12.276Z,77.66
2019-03-10T17:02:43.014Z,77.62
2019-03-10T17:05:16.536Z,77.60
2019-03-10T17:07:45.132Z,78.05
2019-03-10T17:10:15.638Z,78.09
2019-03-10T17:12:44.256Z,78.04
2019-03-10T17:15:15.703Z,77.64
2019-03-10T17:17:44.193Z,77.59
2019-03-10T17:20:15.163Z,77.80
2019-03-10T17:22:43.680Z,77.75
2019-03-10T17:25:14.014Z,77.58
2019-03-10T17:27:42.578Z,77.73
2019-03-10T17:30:22.574Z,77.55
2019-03-10T17:32:51.697Z,77.45
2019-03-10T17:35:21.162Z,77.54
2019-03-10T17:37:49.683Z,77.51
2019-03-10T17:40:21.914Z,77.53
2019-03-10T17:42:50.347Z,77.24
2019-03-10T17:45:20.056Z,77.21
2019-03-10T17:47:48.743Z,76.93
2019-03-10T17:50:18.393Z,77.08
2019-03-10T17:52:47.766Z,77.32
2019-03-10T17:55:17.772Z,77.79
2019-03-10T17:57:47.093Z,77.33
2019-03-10T18:00:23.109Z,77.49
2019-03-10T18:02:51.667Z,77.70
2019-03-10T18:05:20.189Z,77.65
2019-03-10T18:07:48.640Z,77.25
2019-03-10T18:10:18.210Z,77.31
2019-03-10T18:12:46.833Z,77.90
2019-03-10T18:15:19.021Z,77.85
2019-03-10T18:17:48.215Z,77.32
2019-03-10T18:20:21.367Z,77.33
2019-03-10T18:22:50.215Z,77.50
2019-03-10T18:25:18.772Z,77.70
2019-03-10T18:27:47.434Z,77.36
2019-03-10T18:30:20.691Z,76.32
2019-03-10T18:32:49.205Z,76.82
2019-03-10T18:35:17.626Z,76.32
2019-03-10T18:37:46.410Z,75.58
2019-03-10T18:40:17.385Z,75.56
2019-03-10T18:42:45.901Z,75.12
2019-03-10T18:45:16.499Z,74.97
2019-03-10T18:47:45.021Z,74.93
2019-03-10T18:50:17.973Z,74.94
2019-03-10T18:52:46.646Z,74.90
2019-03-10T18:55:16.554Z,74.94
2019-03-10T18:57:45.007Z,74.94
2019-03-10T19:00:22.369Z,75.38
2019-03-10T19:02:51.086Z,75.54
2019-03-10T19:05:19.565Z,75.51
2019-03-10T19:07:47.996Z,75.42
2019-03-10T19:10:16.478Z,75.60
2019-03-10T19:12:45.009Z,75.90
2019-03-10T19:15:18.844Z,76.07
2019-03-10T19:17:47.261Z,76.29
2019-03-10T19:20:16.172Z,76.40
2019-03-10T19:22:44.590Z,76.75
2019-03-10T19:25:14.480Z,77.04
2019-03-10T19:27:43.059Z,76.91
2019-03-10T19:30:14.162Z,77.06
2019-03-10T19:32:42.662Z,77.14
2019-03-10T19:35:12.090Z,77.23
2019-03-10T19:37:40.575Z,77.01
2019-03-10T19:40:14.810Z,77.00
2019-03-10T19:42:43.535Z,77.39
2019-03-10T19:45:14.324Z,77.54
2019-03-10T19:47:42.836Z,77.63
2019-03-10T19:50:13.633Z,77.67
2019-03-10T19:52:42.166Z,77.42
2019-03-10T19:55:15.319Z,77.37
2019-03-10T19:57:44.861Z,77.80
2019-03-10T20:00:15.522Z,77.70
2019-03-10T20:02:44.053Z,77.71
2019-03-10T20:05:13.256Z,78.12
2019-03-10T20:07:43.285Z,77.92
2019-03-10T20:10:19.467Z,77.74
2019-03-10T20:12:48.082Z,77.65
2019-03-10T20:15:18.862Z,77.42
2019-03-10T20:17:47.292Z,77.58
2019-03-10T20:20:17.851Z,77.26
2019-03-10T20:22:46.596Z,77.70
2019-03-10T20:25:16.177Z,77.84
2019-03-10T20:27:44.840Z,77.79
2019-03-10T20:30:21.379Z,78.07
2019-03-10T20:32:49.835Z,77.82
2019-03-10T20:35:18.342Z,77.80
2019-03-10T20:37:46.847Z,77.73
2019-03-10T20:40:23.146Z,77.51
2019-03-10T20:42:51.587Z,77.50
2019-03-10T20:45:20.045Z,77.56
2019-03-10T20:47:50.996Z,77.29
2019-03-10T20:50:20.712Z,77.23
2019-03-10T20:52:49.188Z,77.64
2019-03-10T20:55:17.706Z,77.34
2019-03-10T20:57:46.172Z,77.20
2019-03-10T21:00:20.122Z,77.20
2019-03-10T21:02:48.630Z,77.01
2019-03-10T21:05:17.170Z,77.20
2019-03-10T21:07:45.808Z,77.27
2019-03-10T21:10:24.798Z,77.18
2019-03-10T21:12:53.242Z,77.01
2019-03-10T21:15:20.545Z,77.06
2019-03-10T21:17:46.388Z,77.03
2019-03-10T21:20:15.305Z,77.17
2019-03-10T21:22:41.298Z,76.90
2019-03-10T21:25:16.160Z,76.97
2019-03-10T21:27:42.493Z,77.18
2019-03-10T21:30:17.362Z,77.02
2019-03-10T21:32:43.317Z,77.12
2019-03-10T21:35:17.170Z,77.16
2019-03-10T21:37:37.139Z,77.07
2019-03-10T21:40:06.751Z,77.25
2019-03-10T21:42:32.769Z,77.21
2019-03-10T21:44:58.599Z,77.03
2019-03-10T21:47:24.521Z,77.01
2019-03-10T21:49:50.328Z,77.04
2019-03-10T21:52:16.168Z,76.85
2019-03-10T21:54:42.008Z,76.81
2019-03-10T21:57:07.795Z,76.82
2019-03-10T21:59:33.608Z,76.86
2019-03-10T22:01:59.418Z,76.73
2019-03-10T22:04:25.227Z,76.92
2019-03-10T22:06:51.073Z,76.90
2019-03-10T22:09:16.857Z,76.86
2019-03-10T22:11:42.699Z,77.01
2019-03-10T22:14:08.506Z,76.93
2019-03-10T22:16:34.373Z,77.31
2019-03-10T22:19:00.163Z,77.35
2019-03-10T22:21:25.991Z,77.46
2019-03-10T22:23:59.323Z,77.56
2019-03-10T22:26:19.538Z,77.46
2019-03-10T22:28:45.428Z,77.62
2019-03-10T22:31:11.387Z,77.63
2019-03-10T22:33:37.277Z,77.65
2019-03-10T22:36:03.099Z,77.69
2019-03-10T22:38:28.890Z,77.76
2019-03-10T22:40:54.723Z,78.12
2019-03-10T22:43:20.525Z,78.23
2019-03-10T22:45:46.334Z,78.33
2019-03-10T22:48:12.151Z,78.24
2019-03-10T22:50:37.981Z,78.22
2019-03-10T22:53:03.830Z,78.26
2019-03-10T22:55:29.646Z,78.35
2019-03-10T22:57:55.627Z,78.42
2019-03-10T23:00:24.689Z,78.26
2019-03-10T23:02:50.569Z,78.41
2019-03-10T23:05:16.367Z,78.26
2019-03-10T23:07:42.339Z,78.01
2019-03-10T23:10:10.665Z,77.95
2019-03-10T23:12:36.505Z,77.97
2019-03-10T23:15:04.120Z,77.90
2019-03-10T23:17:29.926Z,77.87
2019-03-10T23:19:55.896Z,77.71
2019-03-10T23:22:21.767Z,77.64
2019-03-10T23:24:47.595Z,77.46
2019-03-10T23:27:13.402Z,77.61
2019-03-10T23:29:39.233Z,77.51
2019-03-10T23:32:05.099Z,77.41
2019-03-10T23:34:30.945Z,77.11
2019-03-10T23:36:56.732Z,77.01
2019-03-10T23:39:22.552Z,77.31
2019-03-10T23:41:48.452Z,77.01
2019-03-10T23:44:14.267Z,76.91
2019-03-10T23:46:40.148Z,76.92
2019-03-10T23:49:05.947Z,76.78
2019-03-10T23:51:31.743Z,76.70
2019-03-10T23:56:40.147Z,76.29
2019-03-10T23:59:08.730Z,76.55
